sensor_id;sensor_type;location;lat;lon;timestamp;P1;durP1;ratioP1;P2;durP2;ratioP2
32295;SDS011;18781;51.550;5.418;2023-11-21T00:02:20;24.30;;;13.48;;
32295;SDS011;18781;51.550;5.418;2023-11-21T00:04:46;21.40;;;12.60;;
32295;SDS011;18781;51.550;5.418;2023-11-21T00:07:13;24.20;;;13.40;;
32295;SDS011;18781;51.550;5.418;2023-11-21T00:09:38;26.80;;;14.38;;
32295;SDS011;18781;51.550;5.418;2023-11-21T00:12:04;24.63;;;14.48;;
32295;SDS011;18781;51.550;5.418;2023-11-21T00:14:29;27.45;;;14.48;;
32295;SDS011;18781;51.550;5.418;2023-11-21T00:16:55;24.98;;;13.20;;
32295;SDS011;18781;51.550;5.418;2023-11-21T00:19:20;23.65;;;13.57;;
32295;SDS011;18781;51.550;5.418;2023-11-21T00:21:46;25.05;;;13.77;;
32295;SDS011;18781;51.550;5.418;2023-11-21T00:24:12;22.58;;;13.88;;
32295;SDS011;18781;51.550;5.418;2023-11-21T00:26:39;23.58;;;13.40;;
32295;SDS011;18781;51.550;5.418;2023-11-21T00:29:04;25.17;;;14.23;;
32295;SDS011;18781;51.550;5.418;2023-11-21T00:31:33;20.27;;;13.03;;
32295;SDS011;18781;51.550;5.418;2023-11-21T00:34:02;17.98;;;11.80;;
32295;SDS011;18781;51.550;5.418;2023-11-21T00:36:30;20.83;;;12.55;;
32295;SDS011;18781;51.550;5.418;2023-11-21T00:38:56;20.73;;;12.55;;
32295;SDS011;18781;51.550;5.418;2023-11-21T00:41:22;18.75;;;10.88;;
32295;SDS011;18781;51.550;5.418;2023-11-21T00:43:48;20.27;;;11.95;;
32295;SDS011;18781;51.550;5.418;2023-11-21T00:46:13;18.77;;;12.38;;
32295;SDS011;18781;51.550;5.418;2023-11-21T00:48:39;19.48;;;12.40;;
32295;SDS011;18781;51.550;5.418;2023-11-21T00:51:04;24.67;;;12.90;;
32295;SDS011;18781;51.550;5.418;2023-11-21T00:53:31;23.15;;;13.52;;
32295;SDS011;18781;51.550;5.418;2023-11-21T00:55:57;21.63;;;12.23;;
32295;SDS011;18781;51.550;5.418;2023-11-21T00:58:25;29.13;;;12.82;;
32295;SDS011;18781;51.550;5.418;2023-11-21T01:00:51;22.60;;;12.93;;
32295;SDS011;18781;51.550;5.418;2023-11-21T01:03:17;22.15;;;12.98;;
32295;SDS011;18781;51.550;5.418;2023-11-21T01:05:43;19.48;;;12.15;;
32295;SDS011;18781;51.550;5.418;2023-11-21T01:08:10;18.40;;;12.18;;
32295;SDS011;18781;51.550;5.418;2023-11-21T01:10:36;21.13;;;11.57;;
32295;SDS011;18781;51.550;5.418;2023-11-21T01:13:02;17.80;;;11.60;;
32295;SDS011;18781;51.550;5.418;2023-11-21T01:15:30;23.92;;;12.35;;
32295;SDS011;18781;51.550;5.418;2023-11-21T01:17:56;26.90;;;12.90;;
32295;SDS011;18781;51.550;5.418;2023-11-21T01:20:22;26.90;;;12.50;;
32295;SDS011;18781;51.550;5.418;2023-11-21T01:22:47;29.85;;;12.68;;
32295;SDS011;18781;51.550;5.418;2023-11-21T01:25:14;22.17;;;10.77;;
32295;SDS011;18781;51.550;5.418;2023-11-21T01:27:41;23.38;;;12.00;;
32295;SDS011;18781;51.550;5.418;2023-11-21T01:30:07;20.52;;;10.80;;
32295;SDS011;18781;51.550;5.418;2023-11-21T01:32:35;18.70;;;10.63;;
32295;SDS011;18781;51.550;5.418;2023-11-21T01:35:04;18.45;;;10.05;;
32295;SDS011;18781;51.550;5.418;2023-11-21T01:37:31;20.05;;;11.20;;
32295;SDS011;18781;51.550;5.418;2023-11-21T01:39:58;20.48;;;12.15;;
32295;SDS011;18781;51.550;5.418;2023-11-21T01:42:24;20.92;;;12.52;;
32295;SDS011;18781;51.550;5.418;2023-11-21T01:44:49;29.52;;;12.73;;
32295;SDS011;18781;51.550;5.418;2023-11-21T01:47:15;27.23;;;12.52;;
32295;SDS011;18781;51.550;5.418;2023-11-21T01:49:43;24.50;;;12.45;;
32295;SDS011;18781;51.550;5.418;2023-11-21T01:52:09;25.67;;;12.80;;
32295;SDS011;18781;51.550;5.418;2023-11-21T01:54:36;24.23;;;13.10;;
32295;SDS011;18781;51.550;5.418;2023-11-21T01:57:02;49.05;;;15.15;;
32295;SDS011;18781;51.550;5.418;2023-11-21T01:59:33;25.95;;;14.15;;
32295;SDS011;18781;51.550;5.418;2023-11-21T02:02:03;64.40;;;15.30;;
32295;SDS011;18781;51.550;5.418;2023-11-21T02:04:30;53.95;;;14.27;;
32295;SDS011;18781;51.550;5.418;2023-11-21T02:06:57;30.20;;;15.50;;
32295;SDS011;18781;51.550;5.418;2023-11-21T02:09:24;28.23;;;14.55;;
32295;SDS011;18781;51.550;5.418;2023-11-21T02:11:55;23.50;;;14.23;;
32295;SDS011;18781;51.550;5.418;2023-11-21T02:14:21;28.20;;;14.82;;
32295;SDS011;18781;51.550;5.418;2023-11-21T02:16:48;27.30;;;13.68;;
32295;SDS011;18781;51.550;5.418;2023-11-21T02:19:17;83.53;;;14.88;;
32295;SDS011;18781;51.550;5.418;2023-11-21T02:21:49;26.70;;;14.10;;
32295;SDS011;18781;51.550;5.418;2023-11-21T02:24:17;24.25;;;13.27;;
32295;SDS011;18781;51.550;5.418;2023-11-21T02:26:46;51.88;;;14.45;;
32295;SDS011;18781;51.550;5.418;2023-11-21T02:29:12;22.27;;;13.93;;
32295;SDS011;18781;51.550;5.418;2023-11-21T02:31:38;70.45;;;12.88;;
32295;SDS011;18781;51.550;5.418;2023-11-21T02:34:13;26.77;;;13.02;;
32295;SDS011;18781;51.550;5.418;2023-11-21T02:36:39;24.33;;;12.65;;
32295;SDS011;18781;51.550;5.418;2023-11-21T02:39:05;37.08;;;13.13;;
32295;SDS011;18781;51.550;5.418;2023-11-21T02:41:32;41.55;;;11.98;;
32295;SDS011;18781;51.550;5.418;2023-11-21T02:43:59;24.50;;;11.60;;
32295;SDS011;18781;51.550;5.418;2023-11-21T02:46:26;27.02;;;12.20;;
32295;SDS011;18781;51.550;5.418;2023-11-21T02:48:51;25.23;;;12.95;;
32295;SDS011;18781;51.550;5.418;2023-11-21T02:51:20;25.25;;;11.93;;
32295;SDS011;18781;51.550;5.418;2023-11-21T02:53:46;18.33;;;11.40;;
32295;SDS011;18781;51.550;5.418;2023-11-21T02:56:11;30.08;;;12.05;;
32295;SDS011;18781;51.550;5.418;2023-11-21T02:58:37;20.35;;;12.13;;
32295;SDS011;18781;51.550;5.418;2023-11-21T03:01:06;20.57;;;12.37;;
32295;SDS011;18781;51.550;5.418;2023-11-21T03:03:33;20.15;;;11.95;;
32295;SDS011;18781;51.550;5.418;2023-11-21T03:05:58;20.27;;;11.80;;
32295;SDS011;18781;51.550;5.418;2023-11-21T03:08:24;21.85;;;12.05;;
32295;SDS011;18781;51.550;5.418;2023-11-21T03:10:50;23.60;;;10.95;;
32295;SDS011;18781;51.550;5.418;2023-11-21T03:13:16;14.23;;;10.88;;
32295;SDS011;18781;51.550;5.418;2023-11-21T03:15:41;15.10;;;11.30;;
32295;SDS011;18781;51.550;5.418;2023-11-21T03:18:07;16.42;;;11.57;;
32295;SDS011;18781;51.550;5.418;2023-11-21T03:20:33;16.70;;;11.52;;
32295;SDS011;18781;51.550;5.418;2023-11-21T03:23:00;15.95;;;10.98;;
32295;SDS011;18781;51.550;5.418;2023-11-21T03:25:25;19.17;;;11.52;;
32295;SDS011;18781;51.550;5.418;2023-11-21T03:27:51;14.88;;;11.07;;
32295;SDS011;18781;51.550;5.418;2023-11-21T03:30:17;17.83;;;11.00;;
32295;SDS011;18781;51.550;5.418;2023-11-21T03:32:42;14.05;;;10.82;;
32295;SDS011;18781;51.550;5.418;2023-11-21T03:35:08;15.00;;;10.90;;
32295;SDS011;18781;51.550;5.418;2023-11-21T03:37:33;19.00;;;11.13;;
32295;SDS011;18781;51.550;5.418;2023-11-21T03:39:59;17.77;;;11.60;;
32295;SDS011;18781;51.550;5.418;2023-11-21T03:42:25;14.95;;;10.95;;
32295;SDS011;18781;51.550;5.418;2023-11-21T03:44:51;19.58;;;11.75;;
32295;SDS011;18781;51.550;5.418;2023-11-21T03:47:17;23.08;;;11.07;;
32295;SDS011;18781;51.550;5.418;2023-11-21T03:49:44;16.88;;;11.43;;
32295;SDS011;18781;51.550;5.418;2023-11-21T03:52:10;15.27;;;11.30;;
32295;SDS011;18781;51.550;5.418;2023-11-21T03:54:36;13.90;;;10.73;;
32295;SDS011;18781;51.550;5.418;2023-11-21T03:57:02;14.75;;;11.00;;
32295;SDS011;18781;51.550;5.418;2023-11-21T03:59:28;21.10;;;11.73;;
32295;SDS011;18781;51.550;5.418;2023-11-21T04:01:57;15.85;;;12.02;;
32295;SDS011;18781;51.550;5.418;2023-11-21T04:04:22;19.05;;;12.50;;
32295;SDS011;18781;51.550;5.418;2023-11-21T04:06:48;16.13;;;12.38;;
32295;SDS011;18781;51.550;5.418;2023-11-21T04:09:14;17.70;;;12.88;;
32295;SDS011;18781;51.550;5.418;2023-11-21T04:11:39;22.50;;;12.07;;
32295;SDS011;18781;51.550;5.418;2023-11-21T04:14:05;17.10;;;12.07;;
32295;SDS011;18781;51.550;5.418;2023-11-21T04:16:31;18.83;;;11.60;;
32295;SDS011;18781;51.550;5.418;2023-11-21T04:18:56;17.25;;;12.40;;
32295;SDS011;18781;51.550;5.418;2023-11-21T04:21:22;16.15;;;12.10;;
32295;SDS011;18781;51.550;5.418;2023-11-21T04:23:49;15.23;;;11.30;;
32295;SDS011;18781;51.550;5.418;2023-11-21T04:26:14;16.42;;;11.73;;
32295;SDS011;18781;51.550;5.418;2023-11-21T04:28:40;14.90;;;11.55;;
32295;SDS011;18781;51.550;5.418;2023-11-21T04:31:06;16.48;;;12.35;;
32295;SDS011;18781;51.550;5.418;2023-11-21T04:33:32;18.25;;;12.05;;
32295;SDS011;18781;51.550;5.418;2023-11-21T04:35:58;17.05;;;12.10;;
32295;SDS011;18781;51.550;5.418;2023-11-21T04:38:23;18.23;;;12.45;;
32295;SDS011;18781;51.550;5.418;2023-11-21T04:40:49;17.35;;;12.50;;
32295;SDS011;18781;51.550;5.418;2023-11-21T04:43:14;19.77;;;12.20;;
32295;SDS011;18781;51.550;5.418;2023-11-21T04:45:40;15.38;;;12.30;;
32295;SDS011;18781;51.550;5.418;2023-11-21T04:48:06;16.50;;;11.93;;
32295;SDS011;18781;51.550;5.418;2023-11-21T04:50:33;22.95;;;13.10;;
32295;SDS011;18781;51.550;5.418;2023-11-21T04:52:59;17.45;;;12.63;;
32295;SDS011;18781;51.550;5.418;2023-11-21T04:55:25;16.45;;;12.75;;
32295;SDS011;18781;51.550;5.418;2023-11-21T04:57:53;22.10;;;12.95;;
32295;SDS011;18781;51.550;5.418;2023-11-21T05:00:18;20.60;;;13.60;;
32295;SDS011;18781;51.550;5.418;2023-11-21T05:02:45;17.73;;;12.88;;
32295;SDS011;18781;51.550;5.418;2023-11-21T05:05:11;18.00;;;13.52;;
32295;SDS011;18781;51.550;5.418;2023-11-21T05:07:37;19.40;;;13.57;;
32295;SDS011;18781;51.550;5.418;2023-11-21T05:10:04;21.05;;;13.43;;
32295;SDS011;18781;51.550;5.418;2023-11-21T05:12:36;21.45;;;13.30;;
32295;SDS011;18781;51.550;5.418;2023-11-21T05:15:02;25.38;;;14.23;;
32295;SDS011;18781;51.550;5.418;2023-11-21T05:17:33;20.05;;;13.60;;
32295;SDS011;18781;51.550;5.418;2023-11-21T05:19:59;22.73;;;14.20;;
32295;SDS011;18781;51.550;5.418;2023-11-21T05:24:54;24.92;;;12.85;;
32295;SDS011;18781;51.550;5.418;2023-11-21T05:27:20;19.38;;;13.45;;
32295;SDS011;18781;51.550;5.418;2023-11-21T05:29:45;22.20;;;13.63;;
32295;SDS011;18781;51.550;5.418;2023-11-21T05:32:11;21.02;;;13.45;;
32295;SDS011;18781;51.550;5.418;2023-11-21T05:34:36;20.10;;;13.25;;
32295;SDS011;18781;51.550;5.418;2023-11-21T05:37:02;18.42;;;13.65;;
32295;SDS011;18781;51.550;5.418;2023-11-21T05:39:27;19.60;;;12.48;;
32295;SDS011;18781;51.550;5.418;2023-11-21T05:41:53;19.88;;;13.13;;
32295;SDS011;18781;51.550;5.418;2023-11-21T05:44:19;20.30;;;13.60;;
32295;SDS011;18781;51.550;5.418;2023-11-21T05:46:44;22.42;;;14.23;;
32295;SDS011;18781;51.550;5.418;2023-11-21T05:49:10;24.38;;;14.60;;
32295;SDS011;18781;51.550;5.418;2023-11-21T05:51:36;24.23;;;15.15;;
32295;SDS011;18781;51.550;5.418;2023-11-21T05:54:03;23.02;;;14.48;;
32295;SDS011;18781;51.550;5.418;2023-11-21T05:56:29;23.60;;;15.00;;
32295;SDS011;18781;51.550;5.418;2023-11-21T05:58:55;23.33;;;15.63;;
32295;SDS011;18781;51.550;5.418;2023-11-21T06:01:20;24.90;;;14.23;;
32295;SDS011;18781;51.550;5.418;2023-11-21T06:03:46;30.13;;;15.93;;
32295;SDS011;18781;51.550;5.418;2023-11-21T06:06:11;32.78;;;15.60;;
32295;SDS011;18781;51.550;5.418;2023-11-21T06:08:37;31.05;;;15.85;;
32295;SDS011;18781;51.550;5.418;2023-11-21T06:11:02;37.30;;;15.93;;
32295;SDS011;18781;51.550;5.418;2023-11-21T06:13:28;40.40;;;16.40;;
32295;SDS011;18781;51.550;5.418;2023-11-21T06:15:53;33.25;;;15.88;;
32295;SDS011;18781;51.550;5.418;2023-11-21T06:18:20;35.97;;;16.02;;
32295;SDS011;18781;51.550;5.418;2023-11-21T06:20:46;33.83;;;16.60;;
32295;SDS011;18781;51.550;5.418;2023-11-21T06:23:11;39.70;;;16.50;;
32295;SDS011;18781;51.550;5.418;2023-11-21T06:25:37;40.17;;;17.08;;
32295;SDS011;18781;51.550;5.418;2023-11-21T06:28:03;38.78;;;17.77;;
32295;SDS011;18781;51.550;5.418;2023-11-21T06:30:28;36.65;;;17.77;;
32295;SDS011;18781;51.550;5.418;2023-11-21T06:32:54;49.88;;;17.80;;
32295;SDS011;18781;51.550;5.418;2023-11-21T06:35:21;38.83;;;18.00;;
32295;SDS011;18781;51.550;5.418;2023-11-21T06:37:47;41.35;;;17.40;;
32295;SDS011;18781;51.550;5.418;2023-11-21T06:40:13;41.30;;;17.58;;
32295;SDS011;18781;51.550;5.418;2023-11-21T06:42:40;38.17;;;17.23;;
32295;SDS011;18781;51.550;5.418;2023-11-21T06:45:06;45.10;;;19.02;;
32295;SDS011;18781;51.550;5.418;2023-11-21T06:47:33;44.72;;;18.77;;
32295;SDS011;18781;51.550;5.418;2023-11-21T06:49:58;42.65;;;17.75;;
32295;SDS011;18781;51.550;5.418;2023-11-21T06:52:25;42.30;;;17.63;;
32295;SDS011;18781;51.550;5.418;2023-11-21T06:54:51;46.10;;;19.08;;
32295;SDS011;18781;51.550;5.418;2023-11-21T06:57:16;38.65;;;18.30;;
32295;SDS011;18781;51.550;5.418;2023-11-21T06:59:42;50.20;;;20.02;;
32295;SDS011;18781;51.550;5.418;2023-11-21T07:02:08;46.28;;;20.27;;
32295;SDS011;18781;51.550;5.418;2023-11-21T07:04:34;46.28;;;19.15;;
32295;SDS011;18781;51.550;5.418;2023-11-21T07:07:01;49.67;;;19.30;;
32295;SDS011;18781;51.550;5.418;2023-11-21T07:09:27;47.78;;;19.75;;
32295;SDS011;18781;51.550;5.418;2023-11-21T07:11:53;50.03;;;19.33;;
32295;SDS011;18781;51.550;5.418;2023-11-21T07:14:19;44.70;;;19.05;;
32295;SDS011;18781;51.550;5.418;2023-11-21T07:16:45;46.38;;;19.52;;
32295;SDS011;18781;51.550;5.418;2023-11-21T07:19:11;50.20;;;20.17;;
32295;SDS011;18781;51.550;5.418;2023-11-21T07:21:37;52.28;;;20.25;;
32295;SDS011;18781;51.550;5.418;2023-11-21T07:24:04;45.20;;;18.77;;
32295;SDS011;18781;51.550;5.418;2023-11-21T07:26:31;57.20;;;19.33;;
32295;SDS011;18781;51.550;5.418;2023-11-21T07:28:58;49.50;;;20.83;;
32295;SDS011;18781;51.550;5.418;2023-11-21T07:31:24;47.33;;;19.35;;
32295;SDS011;18781;51.550;5.418;2023-11-21T07:33:50;49.10;;;20.00;;
32295;SDS011;18781;51.550;5.418;2023-11-21T07:36:16;47.92;;;19.90;;
32295;SDS011;18781;51.550;5.418;2023-11-21T07:38:48;45.88;;;19.55;;
32295;SDS011;18781;51.550;5.418;2023-11-21T07:41:14;47.97;;;20.13;;
32295;SDS011;18781;51.550;5.418;2023-11-21T07:43:42;49.30;;;19.60;;
32295;SDS011;18781;51.550;5.418;2023-11-21T07:46:09;42.80;;;19.65;;
32295;SDS011;18781;51.550;5.418;2023-11-21T07:48:37;46.10;;;20.42;;
32295;SDS011;18781;51.550;5.418;2023-11-21T07:51:04;44.40;;;18.80;;
32295;SDS011;18781;51.550;5.418;2023-11-21T07:53:29;54.70;;;19.75;;
32295;SDS011;18781;51.550;5.418;2023-11-21T07:55:55;46.78;;;19.83;;
32295;SDS011;18781;51.550;5.418;2023-11-21T07:58:22;56.10;;;19.52;;
32295;SDS011;18781;51.550;5.418;2023-11-21T08:00:48;47.38;;;21.02;;
32295;SDS011;18781;51.550;5.418;2023-11-21T08:03:15;46.42;;;19.67;;
32295;SDS011;18781;51.550;5.418;2023-11-21T08:05:41;46.53;;;19.23;;
32295;SDS011;18781;51.550;5.418;2023-11-21T08:08:07;50.90;;;19.20;;
32295;SDS011;18781;51.550;5.418;2023-11-21T08:10:33;47.58;;;19.77;;
32295;SDS011;18781;51.550;5.418;2023-11-21T08:13:00;45.28;;;20.33;;
32295;SDS011;18781;51.550;5.418;2023-11-21T08:15:26;41.28;;;18.75;;
32295;SDS011;18781;51.550;5.418;2023-11-21T08:17:52;49.30;;;19.80;;
32295;SDS011;18781;51.550;5.418;2023-11-21T08:20:17;43.47;;;19.70;;
32295;SDS011;18781;51.550;5.418;2023-11-21T08:22:46;47.42;;;20.58;;
32295;SDS011;18781;51.550;5.418;2023-11-21T08:25:13;47.50;;;19.73;;
32295;SDS011;18781;51.550;5.418;2023-11-21T08:27:38;40.80;;;19.75;;
32295;SDS011;18781;51.550;5.418;2023-11-21T08:30:04;44.58;;;19.70;;
32295;SDS011;18781;51.550;5.418;2023-11-21T08:32:31;47.75;;;19.48;;
32295;SDS011;18781;51.550;5.418;2023-11-21T08:34:58;53.15;;;20.20;;
32295;SDS011;18781;51.550;5.418;2023-11-21T08:37:24;47.50;;;20.95;;
32295;SDS011;18781;51.550;5.418;2023-11-21T08:39:52;48.17;;;20.90;;
32295;SDS011;18781;51.550;5.418;2023-11-21T08:42:18;43.80;;;18.80;;
32295;SDS011;18781;51.550;5.418;2023-11-21T08:44:44;47.53;;;20.23;;
32295;SDS011;18781;51.550;5.418;2023-11-21T08:47:10;52.13;;;21.40;;
32295;SDS011;18781;51.550;5.418;2023-11-21T08:49:36;52.08;;;20.45;;
32295;SDS011;18781;51.550;5.418;2023-11-21T08:52:03;48.38;;;19.95;;
32295;SDS011;18781;51.550;5.418;2023-11-21T08:54:30;41.00;;;18.80;;
32295;SDS011;18781;51.550;5.418;2023-11-21T08:56:56;50.40;;;21.23;;
32295;SDS011;18781;51.550;5.418;2023-11-21T08:59:23;44.33;;;20.85;;
32295;SDS011;18781;51.550;5.418;2023-11-21T09:01:52;55.58;;;21.85;;
32295;SDS011;18781;51.550;5.418;2023-11-21T09:04:18;47.45;;;20.77;;
32295;SDS011;18781;51.550;5.418;2023-11-21T09:06:43;51.50;;;20.38;;
32295;SDS011;18781;51.550;5.418;2023-11-21T09:09:09;47.67;;;21.08;;
32295;SDS011;18781;51.550;5.418;2023-11-21T09:11:35;50.45;;;22.05;;
32295;SDS011;18781;51.550;5.418;2023-11-21T09:14:02;54.03;;;21.27;;
32295;SDS011;18781;51.550;5.418;2023-11-21T09:16:30;48.33;;;21.80;;
32295;SDS011;18781;51.550;5.418;2023-11-21T09:18:56;44.75;;;21.48;;
32295;SDS011;18781;51.550;5.418;2023-11-21T09:21:22;60.03;;;22.27;;
32295;SDS011;18781;51.550;5.418;2023-11-21T09:23:48;45.42;;;21.55;;
32295;SDS011;18781;51.550;5.418;2023-11-21T09:26:14;59.15;;;23.55;;
32295;SDS011;18781;51.550;5.418;2023-11-21T09:28:41;49.83;;;22.48;;
32295;SDS011;18781;51.550;5.418;2023-11-21T09:31:11;45.95;;;21.67;;
32295;SDS011;18781;51.550;5.418;2023-11-21T09:33:37;53.50;;;22.60;;
32295;SDS011;18781;51.550;5.418;2023-11-21T09:36:03;54.78;;;22.73;;
32295;SDS011;18781;51.550;5.418;2023-11-21T09:38:30;68.03;;;25.60;;
32295;SDS011;18781;51.550;5.418;2023-11-21T09:40:56;56.50;;;23.90;;
32295;SDS011;18781;51.550;5.418;2023-11-21T09:43:24;49.60;;;23.15;;
32295;SDS011;18781;51.550;5.418;2023-11-21T09:45:54;56.90;;;24.30;;
32295;SDS011;18781;51.550;5.418;2023-11-21T09:48:24;48.58;;;22.38;;
32295;SDS011;18781;51.550;5.418;2023-11-21T09:50:51;50.08;;;22.83;;
32295;SDS011;18781;51.550;5.418;2023-11-21T09:53:22;47.33;;;23.15;;
32295;SDS011;18781;51.550;5.418;2023-11-21T09:55:50;49.08;;;22.67;;
32295;SDS011;18781;51.550;5.418;2023-11-21T09:58:17;45.78;;;23.05;;
32295;SDS011;18781;51.550;5.418;2023-11-21T10:00:45;52.13;;;23.95;;
32295;SDS011;18781;51.550;5.418;2023-11-21T10:03:12;52.92;;;24.45;;
32295;SDS011;18781;51.550;5.418;2023-11-21T10:05:38;52.13;;;23.33;;
32295;SDS011;18781;51.550;5.418;2023-11-21T10:08:08;53.83;;;23.75;;
32295;SDS011;18781;51.550;5.418;2023-11-21T10:10:35;43.25;;;22.55;;
32295;SDS011;18781;51.550;5.418;2023-11-21T10:13:05;47.55;;;24.60;;
32295;SDS011;18781;51.550;5.418;2023-11-21T10:15:35;54.00;;;25.00;;
32295;SDS011;18781;51.550;5.418;2023-11-21T10:18:01;50.63;;;24.42;;
32295;SDS011;18781;51.550;5.418;2023-11-21T10:20:28;40.88;;;23.65;;
32295;SDS011;18781;51.550;5.418;2023-11-21T10:22:55;50.65;;;24.58;;
32295;SDS011;18781;51.550;5.418;2023-11-21T10:25:23;66.97;;;29.10;;
32295;SDS011;18781;51.550;5.418;2023-11-21T10:27:50;53.90;;;28.70;;
32295;SDS011;18781;51.550;5.418;2023-11-21T10:30:24;44.88;;;25.83;;
32295;SDS011;18781;51.550;5.418;2023-11-21T10:32:58;53.63;;;22.92;;
32295;SDS011;18781;51.550;5.418;2023-11-21T10:35:25;45.70;;;22.30;;
32295;SDS011;18781;51.550;5.418;2023-11-21T10:38:06;43.67;;;21.58;;
32295;SDS011;18781;51.550;5.418;2023-11-21T10:40:35;50.43;;;22.00;;
32295;SDS011;18781;51.550;5.418;2023-11-21T10:43:07;41.58;;;20.52;;
32295;SDS011;18781;51.550;5.418;2023-11-21T10:45:37;42.25;;;21.63;;
32295;SDS011;18781;51.550;5.418;2023-11-21T10:48:06;38.30;;;20.88;;
32295;SDS011;18781;51.550;5.418;2023-11-21T10:50:36;38.25;;;19.75;;
32295;SDS011;18781;51.550;5.418;2023-11-21T10:55:32;41.17;;;19.52;;
32295;SDS011;18781;51.550;5.418;2023-11-21T10:57:59;36.10;;;19.77;;
32295;SDS011;18781;51.550;5.418;2023-11-21T11:00:27;34.08;;;19.75;;
32295;SDS011;18781;51.550;5.418;2023-11-21T11:02:54;31.17;;;17.35;;
32295;SDS011;18781;51.550;5.418;2023-11-21T11:05:21;36.28;;;18.65;;
32295;SDS011;18781;51.550;5.418;2023-11-21T11:07:50;38.08;;;19.92;;
32295;SDS011;18781;51.550;5.418;2023-11-21T11:10:24;26.80;;;17.70;;
32295;SDS011;18781;51.550;5.418;2023-11-21T11:12:53;30.73;;;16.42;;
32295;SDS011;18781;51.550;5.418;2023-11-21T11:15:19;27.90;;;16.85;;
32295;SDS011;18781;51.550;5.418;2023-11-21T11:17:45;28.55;;;16.55;;
32295;SDS011;18781;51.550;5.418;2023-11-21T11:20:12;30.60;;;17.25;;
32295;SDS011;18781;51.550;5.418;2023-11-21T11:31:08;26.63;;;15.70;;
32295;SDS011;18781;51.550;5.418;2023-11-21T11:36:55;31.33;;;18.40;;
32295;SDS011;18781;51.550;5.418;2023-11-21T11:41:57;29.85;;;17.17;;
32295;SDS011;18781;51.550;5.418;2023-11-21T11:49:56;32.88;;;17.50;;
32295;SDS011;18781;51.550;5.418;2023-11-21T11:55:01;34.22;;;17.65;;
32295;SDS011;18781;51.550;5.418;2023-11-21T11:57:31;67.65;;;25.42;;
32295;SDS011;18781;51.550;5.418;2023-11-21T12:00:09;30.50;;;17.83;;
32295;SDS011;18781;51.550;5.418;2023-11-21T12:05:09;37.88;;;20.55;;
32295;SDS011;18781;51.550;5.418;2023-11-21T12:10:13;32.60;;;17.63;;
32295;SDS011;18781;51.550;5.418;2023-11-21T12:12:43;27.40;;;17.50;;
32295;SDS011;18781;51.550;5.418;2023-11-21T12:15:14;31.55;;;16.73;;
32295;SDS011;18781;51.550;5.418;2023-11-21T12:17:41;33.15;;;17.90;;
32295;SDS011;18781;51.550;5.418;2023-11-21T12:20:08;31.50;;;17.23;;
32295;SDS011;18781;51.550;5.418;2023-11-21T12:22:43;30.60;;;17.67;;
32295;SDS011;18781;51.550;5.418;2023-11-21T12:25:16;33.92;;;18.00;;
32295;SDS011;18781;51.550;5.418;2023-11-21T12:27:46;32.35;;;16.88;;
32295;SDS011;18781;51.550;5.418;2023-11-21T12:30:15;26.90;;;15.70;;
32295;SDS011;18781;51.550;5.418;2023-11-21T12:32:47;24.67;;;14.48;;
32295;SDS011;18781;51.550;5.418;2023-11-21T12:35:15;26.30;;;14.88;;
32295;SDS011;18781;51.550;5.418;2023-11-21T12:37:44;26.25;;;15.35;;
32295;SDS011;18781;51.550;5.418;2023-11-21T12:40:12;32.83;;;15.35;;
32295;SDS011;18781;51.550;5.418;2023-11-21T12:42:43;33.33;;;15.60;;
32295;SDS011;18781;51.550;5.418;2023-11-21T12:45:18;27.25;;;15.50;;
32295;SDS011;18781;51.550;5.418;2023-11-21T12:47:50;29.35;;;15.70;;
32295;SDS011;18781;51.550;5.418;2023-11-21T12:50:23;29.15;;;15.60;;
32295;SDS011;18781;51.550;5.418;2023-11-21T12:52:53;29.23;;;15.65;;
32295;SDS011;18781;51.550;5.418;2023-11-21T12:55:22;26.77;;;15.75;;
32295;SDS011;18781;51.550;5.418;2023-11-21T12:57:49;27.75;;;17.05;;
32295;SDS011;18781;51.550;5.418;2023-11-21T13:00:17;32.05;;;16.67;;
32295;SDS011;18781;51.550;5.418;2023-11-21T13:02:56;28.83;;;17.30;;
32295;SDS011;18781;51.550;5.418;2023-11-21T13:05:29;29.35;;;16.17;;
32295;SDS011;18781;51.550;5.418;2023-11-21T13:08:01;30.92;;;16.27;;
32295;SDS011;18781;51.550;5.418;2023-11-21T13:10:29;30.08;;;16.98;;
32295;SDS011;18781;51.550;5.418;2023-11-21T13:13:02;30.08;;;17.00;;
32295;SDS011;18781;51.550;5.418;2023-11-21T13:15:30;30.55;;;17.30;;
32295;SDS011;18781;51.550;5.418;2023-11-21T13:17:58;30.38;;;17.23;;
32295;SDS011;18781;51.550;5.418;2023-11-21T13:20:26;45.75;;;21.83;;
32295;SDS011;18781;51.550;5.418;2023-11-21T13:22:53;48.17;;;23.37;;
32295;SDS011;18781;51.550;5.418;2023-11-21T13:25:23;45.00;;;22.80;;
32295;SDS011;18781;51.550;5.418;2023-11-21T13:30:22;43.55;;;21.65;;
32295;SDS011;18781;51.550;5.418;2023-11-21T13:32:52;41.55;;;22.75;;
32295;SDS011;18781;51.550;5.418;2023-11-21T13:35:22;43.65;;;22.70;;
32295;SDS011;18781;51.550;5.418;2023-11-21T13:37:55;43.55;;;22.42;;
32295;SDS011;18781;51.550;5.418;2023-11-21T13:40:24;48.17;;;22.85;;
32295;SDS011;18781;51.550;5.418;2023-11-21T13:42:54;46.92;;;22.85;;
32295;SDS011;18781;51.550;5.418;2023-11-21T13:45:24;49.17;;;22.70;;
32295;SDS011;18781;51.550;5.418;2023-11-21T13:47:51;44.65;;;23.35;;
32295;SDS011;18781;51.550;5.418;2023-11-21T13:50:21;43.13;;;21.92;;
32295;SDS011;18781;51.550;5.418;2023-11-21T13:52:55;41.08;;;23.10;;
32295;SDS011;18781;51.550;5.418;2023-11-21T13:55:21;39.72;;;22.67;;
32295;SDS011;18781;51.550;5.418;2023-11-21T13:57:50;41.45;;;21.70;;
32295;SDS011;18781;51.550;5.418;2023-11-21T14:00:17;37.00;;;21.33;;
32295;SDS011;18781;51.550;5.418;2023-11-21T14:03:01;40.35;;;20.65;;
32295;SDS011;18781;51.550;5.418;2023-11-21T14:07:59;35.53;;;19.00;;
32295;SDS011;18781;51.550;5.418;2023-11-21T14:10:29;38.83;;;19.75;;
32295;SDS011;18781;51.550;5.418;2023-11-21T14:13:11;35.80;;;18.80;;
32295;SDS011;18781;51.550;5.418;2023-11-21T14:15:38;34.78;;;18.95;;
32295;SDS011;18781;51.550;5.418;2023-11-21T14:18:08;30.33;;;18.80;;
32295;SDS011;18781;51.550;5.418;2023-11-21T14:20:38;33.78;;;17.95;;
32295;SDS011;18781;51.550;5.418;2023-11-21T14:23:05;30.92;;;17.83;;
32295;SDS011;18781;51.550;5.418;2023-11-21T14:25:32;30.23;;;16.85;;
32295;SDS011;18781;51.550;5.418;2023-11-21T14:27:59;30.13;;;16.60;;
32295;SDS011;18781;51.550;5.418;2023-11-21T14:30:25;29.80;;;17.58;;
32295;SDS011;18781;51.550;5.418;2023-11-21T14:32:52;29.60;;;16.98;;
32295;SDS011;18781;51.550;5.418;2023-11-21T14:35:18;25.70;;;15.85;;
32295;SDS011;18781;51.550;5.418;2023-11-21T14:37:44;29.88;;;15.50;;
32295;SDS011;18781;51.550;5.418;2023-11-21T14:40:11;26.17;;;15.48;;
32295;SDS011;18781;51.550;5.418;2023-11-21T14:42:37;28.08;;;15.55;;
32295;SDS011;18781;51.550;5.418;2023-11-21T14:45:04;24.48;;;14.20;;
32295;SDS011;18781;51.550;5.418;2023-11-21T14:47:32;26.48;;;15.02;;
32295;SDS011;18781;51.550;5.418;2023-11-21T14:50:02;23.63;;;14.43;;
32295;SDS011;18781;51.550;5.418;2023-11-21T14:52:47;21.75;;;12.18;;
32295;SDS011;18781;51.550;5.418;2023-11-21T14:55:24;16.63;;;10.50;;
32295;SDS011;18781;51.550;5.418;2023-11-21T14:58:18;20.88;;;11.50;;
32295;SDS011;18781;51.550;5.418;2023-11-21T15:01:04;18.42;;;11.10;;